createdAt,value
2023-11-30T00:00:34.516Z,98819.59
2023-11-30T00:03:01.658Z,98820.41
2023-11-30T00:05:28.744Z,98833.47
2023-11-30T00:07:55.782Z,98826.59
2023-11-30T00:10:22.826Z,98831.56
2023-11-30T00:12:49.901Z,98832.44
2023-11-30T00:15:16.933Z,98819.50
2023-11-30T00:17:43.897Z,98810.03
2023-11-30T00:20:12.516Z,98816.00
2023-11-30T00:22:40.175Z,98815.13
2023-11-30T00:25:07.548Z,98814.03
2023-11-30T00:27:34.524Z,98821.66
2023-11-30T00:30:01.701Z,98814.91
2023-11-30T00:32:28.769Z,98823.53
2023-11-30T00:34:55.824Z,98824.53
2023-11-30T00:37:22.952Z,98813.47
2023-11-30T00:39:49.888Z,98813.41
2023-11-30T00:42:17.137Z,98814.19
2023-11-30T00:44:44.909Z,98813.91
2023-11-30T00:47:12.045Z,98809.06
2023-11-30T00:49:38.959Z,98816.00
2023-11-30T00:52:06.388Z,98812.34
2023-11-30T00:54:33.317Z,98820.22
2023-11-30T00:57:00.341Z,98822.66
2023-11-30T00:59:28.380Z,98826.03
2023-11-30T01:01:55.397Z,98819.72
2023-11-30T01:04:22.566Z,98816.09
2023-11-30T01:06:49.810Z,98821.41
2023-11-30T01:09:17.045Z,98825.03
2023-11-30T01:11:44.842Z,98824.41
2023-11-30T01:14:12.167Z,98817.81
2023-11-30T01:16:40.093Z,98818.50
2023-11-30T01:19:07.031Z,98821.47
2023-11-30T01:21:34.216Z,98829.66
2023-11-30T01:24:01.299Z,98833.59
2023-11-30T01:26:28.380Z,98829.34
2023-11-30T01:28:55.331Z,98832.59
2023-11-30T01:31:22.480Z,98828.41
2023-11-30T01:33:50.772Z,98826.00
2023-11-30T01:36:17.842Z,98825.22
2023-11-30T01:38:44.946Z,98821.03
2023-11-30T01:41:11.945Z,98821.75
2023-11-30T01:43:39.001Z,98821.59
2023-11-30T01:46:06.278Z,98807.63
2023-11-30T01:48:34.037Z,98815.06
2023-11-30T01:51:03.508Z,98809.28
2023-11-30T01:53:30.563Z,98812.09
2023-11-30T01:55:58.213Z,98805.44
2023-11-30T01:58:25.209Z,98806.22
2023-11-30T02:00:53.923Z,98796.28
2023-11-30T02:03:24.265Z,98804.69
2023-11-30T02:05:53.275Z,98816.47
2023-11-30T02:08:21.195Z,98808.94
2023-11-30T02:10:48.275Z,98797.84
2023-11-30T02:13:15.590Z,98806.00
2023-11-30T02:15:42.796Z,98799.56
2023-11-30T02:18:09.986Z,98795.63
2023-11-30T02:20:37.049Z,98791.56
2023-11-30T02:23:03.990Z,98794.28
2023-11-30T02:25:30.914Z,98787.56
2023-11-30T02:27:59.965Z,98799.44
2023-11-30T02:30:27.130Z,98806.31
2023-11-30T02:32:54.416Z,98800.28
2023-11-30T02:35:21.507Z,98810.75
2023-11-30T02:37:48.538Z,98793.22
2023-11-30T02:40:15.674Z,98800.53
2023-11-30T02:42:42.630Z,98791.34
2023-11-30T02:45:10.251Z,98799.88
2023-11-30T02:47:37.308Z,98792.19
2023-11-30T02:50:04.949Z,98794.75
2023-11-30T02:52:31.865Z,98797.59
2023-11-30T02:54:58.882Z,98788.38
2023-11-30T02:57:25.874Z,98789.47
2023-11-30T02:59:53.029Z,98790.53
2023-11-30T03:02:20.598Z,98785.41
2023-11-30T03:04:48.030Z,98775.31
2023-11-30T03:07:15.212Z,98777.88
2023-11-30T03:09:42.251Z,98783.06
2023-11-30T03:12:09.324Z,98780.59
2023-11-30T03:14:36.282Z,98781.41
2023-11-30T03:17:03.298Z,98780.63
2023-11-30T03:19:31.120Z,98777.22
2023-11-30T03:21:58.037Z,98782.28
2023-11-30T03:24:25.038Z,98783.03
2023-11-30T03:26:52.072Z,98777.97
2023-11-30T03:29:19.176Z,98775.41
2023-11-30T03:31:46.240Z,98780.50
2023-11-30T03:34:13.470Z,98776.38
2023-11-30T03:36:40.808Z,98779.84
2023-11-30T03:39:07.958Z,98768.88
2023-11-30T03:41:36.242Z,98771.44
2023-11-30T03:44:03.542Z,98774.81
2023-11-30T03:46:31.119Z,98770.47
2023-11-30T03:48:58.247Z,98776.53
2023-11-30T03:51:25.165Z,98769.78
2023-11-30T03:53:52.231Z,98768.16
2023-11-30T03:56:19.238Z,98767.22
2023-11-30T03:58:46.203Z,98761.22
2023-11-30T04:01:13.125Z,98763.69
2023-11-30T04:03:40.156Z,98761.16
2023-11-30T04:06:07.697Z,98761.97
2023-11-30T04:08:35.247Z,98755.94
2023-11-30T04:11:02.174Z,98761.09
2023-11-30T04:13:29.606Z,98758.47
2023-11-30T04:15:56.636Z,98759.38
2023-11-30T04:18:24.045Z,98758.50
2023-11-30T04:20:51.122Z,98754.97
2023-11-30T04:23:18.327Z,98753.25
2023-11-30T04:25:46.027Z,98748.22
2023-11-30T04:28:13.143Z,98752.41
2023-11-30T04:30:41.143Z,98747.25
2023-11-30T04:33:08.293Z,98753.84
2023-11-30T04:35:35.631Z,98746.16
2023-11-30T04:38:02.566Z,98752.91
2023-11-30T04:40:30.151Z,98753.69
2023-11-30T04:42:58.104Z,98750.28
2023-11-30T04:45:25.853Z,98759.59
2023-11-30T04:47:52.927Z,98756.16
2023-11-30T04:50:20.274Z,98755.34
2023-11-30T04:52:47.256Z,98759.56
2023-11-30T04:55:14.487Z,98757.00
2023-11-30T04:57:41.592Z,98751.06
2023-11-30T05:00:09.992Z,98749.34
2023-11-30T05:02:39.273Z,98744.19
2023-11-30T05:05:07.717Z,98737.28
2023-11-30T05:07:34.809Z,98742.31
2023-11-30T05:10:01.836Z,98743.00
2023-11-30T05:12:28.893Z,98741.22
2023-11-30T05:14:56.332Z,98741.09
2023-11-30T05:17:23.265Z,98740.25
2023-11-30T05:19:50.326Z,98742.72
2023-11-30T05:22:17.360Z,98741.06
2023-11-30T05:24:44.368Z,98735.94
2023-11-30T05:27:11.407Z,98742.72
2023-11-30T05:29:38.445Z,98749.44
2023-11-30T05:32:05.620Z,98740.00
2023-11-30T05:34:32.709Z,98734.03
2023-11-30T05:36:59.688Z,98739.91
2023-11-30T05:39:26.594Z,98739.88
2023-11-30T05:41:53.606Z,98738.16
2023-11-30T05:44:21.848Z,98746.59
2023-11-30T05:46:49.370Z,98759.38
2023-11-30T05:49:16.501Z,98757.72
2023-11-30T05:51:43.560Z,98754.31
2023-11-30T05:54:11.618Z,98752.59
2023-11-30T05:56:38.671Z,98748.28
2023-11-30T05:59:05.987Z,98754.09
2023-11-30T06:01:33.193Z,98751.31
2023-11-30T06:04:00.377Z,98753.56
2023-11-30T06:06:27.667Z,98744.66
2023-11-30T06:08:54.630Z,98750.28
2023-11-30T06:11:21.630Z,98752.44
2023-11-30T06:13:48.768Z,98756.34
2023-11-30T06:16:16.765Z,98752.84
2023-11-30T06:18:43.926Z,98761.94
2023-11-30T06:21:11.549Z,98767.84
2023-11-30T06:23:39.165Z,98767.94
2023-11-30T06:26:07.881Z,98770.53
2023-11-30T06:28:34.985Z,98768.94
2023-11-30T06:31:02.112Z,98774.25
2023-11-30T06:33:29.754Z,98773.59
2023-11-30T06:35:56.929Z,98769.53
2023-11-30T06:38:23.939Z,98765.41
2023-11-30T06:40:51.182Z,98765.53
2023-11-30T06:43:18.203Z,98764.84
2023-11-30T06:45:45.247Z,98769.25
2023-11-30T06:48:12.397Z,98773.66
2023-11-30T06:50:39.656Z,98771.25
2023-11-30T06:53:06.637Z,98775.66
2023-11-30T06:55:33.686Z,98774.91
2023-11-30T06:58:00.666Z,98776.78
2023-11-30T07:00:30.684Z,98778.50
2023-11-30T07:02:57.881Z,98787.09
2023-11-30T07:05:25.619Z,98788.06
2023-11-30T07:07:52.844Z,98791.50
2023-11-30T07:10:20.022Z,98790.69
2023-11-30T07:12:47.540Z,98789.91
2023-11-30T07:15:14.725Z,98788.22
2023-11-30T07:17:42.044Z,98784.00
2023-11-30T07:20:09.767Z,98783.28
2023-11-30T07:22:37.075Z,98788.50
2023-11-30T07:25:05.310Z,98786.88
2023-11-30T07:27:32.388Z,98788.81
2023-11-30T07:29:59.502Z,98788.88
2023-11-30T07:32:26.501Z,98797.47
2023-11-30T07:34:53.869Z,98789.97
2023-11-30T07:37:23.195Z,98792.53
2023-11-30T07:39:50.454Z,98789.13
2023-11-30T07:42:28.682Z,98796.66
2023-11-30T07:45:01.322Z,98795.06
2023-11-30T07:47:29.139Z,98791.66
2023-11-30T07:49:56.177Z,98794.88
2023-11-30T07:52:23.191Z,98787.25
2023-11-30T07:54:50.235Z,98786.47
2023-11-30T07:57:17.917Z,98771.31
2023-11-30T07:59:45.606Z,98783.22
2023-11-30T08:02:13.283Z,98784.00
2023-11-30T08:04:42.019Z,98792.56
2023-11-30T08:07:09.068Z,98793.66
2023-11-30T08:09:36.120Z,98785.28
2023-11-30T08:12:03.684Z,98791.38
2023-11-30T08:14:30.774Z,98792.25
2023-11-30T08:16:57.915Z,98782.94
2023-11-30T08:19:24.851Z,98787.19
2023-11-30T08:21:52.113Z,98794.03
2023-11-30T08:24:19.471Z,98789.81
2023-11-30T08:26:48.091Z,98792.25
2023-11-30T08:29:16.768Z,98786.13
2023-11-30T08:31:44.013Z,98790.13
2023-11-30T08:34:11.651Z,98789.97
2023-11-30T08:36:38.860Z,98792.25
2023-11-30T08:39:07.113Z,98798.06
2023-11-30T08:41:34.326Z,98804.69
2023-11-30T08:44:01.386Z,98811.25
2023-11-30T08:46:28.581Z,98809.38
2023-11-30T08:48:55.986Z,98806.63
2023-11-30T08:51:23.184Z,98812.38
2023-11-30T08:53:50.151Z,98799.53
2023-11-30T08:56:17.634Z,98801.75
2023-11-30T08:58:44.844Z,98806.69
2023-11-30T09:01:11.937Z,98802.38
2023-11-30T09:03:38.896Z,98793.75
2023-11-30T09:06:06.498Z,98808.81
2023-11-30T09:08:34.885Z,98808.03
2023-11-30T09:11:01.867Z,98802.19
2023-11-30T09:13:28.821Z,98817.53
2023-11-30T09:15:56.172Z,98811.88
2023-11-30T09:18:23.225Z,98819.94
2023-11-30T09:20:50.253Z,98813.47
2023-11-30T09:23:17.270Z,98821.50
2023-11-30T09:25:44.428Z,98822.94
2023-11-30T09:28:11.521Z,98820.09
2023-11-30T09:30:38.548Z,98813.78
2023-11-30T09:33:07.903Z,98813.44
2023-11-30T09:35:35.045Z,98807.06
2023-11-30T09:38:02.398Z,98803.91
2023-11-30T09:40:29.356Z,98807.47
2023-11-30T09:42:57.698Z,98793.81
2023-11-30T09:45:24.829Z,98803.22
2023-11-30T09:47:53.245Z,98802.44
2023-11-30T09:50:20.908Z,98804.44
2023-11-30T09:52:48.011Z,98798.88
2023-11-30T09:55:16.969Z,98794.22
2023-11-30T09:57:44.028Z,98793.59
2023-11-30T10:00:11.948Z,98781.94
2023-11-30T10:02:39.063Z,98777.84
2023-11-30T10:05:08.199Z,98777.94
2023-11-30T10:07:37.154Z,98769.56
2023-11-30T10:10:05.859Z,98776.41
2023-11-30T10:12:33.149Z,98773.94
2023-11-30T10:15:02.057Z,98774.06
2023-11-30T10:17:30.059Z,98775.19
2023-11-30T10:19:57.364Z,98772.84
2023-11-30T10:22:24.417Z,98768.88
2023-11-30T10:24:51.722Z,98771.69
2023-11-30T10:27:23.106Z,98773.50
2023-11-30T10:29:50.690Z,98775.31
2023-11-30T10:32:18.371Z,98770.31
2023-11-30T10:34:49.605Z,98762.66
2023-11-30T10:37:19.974Z,98755.69
2023-11-30T10:39:56.351Z,98756.44
2023-11-30T10:42:24.955Z,98753.06
2023-11-30T10:44:54.650Z,98760.97
2023-11-30T10:47:22.960Z,98758.56
2023-11-30T10:49:51.224Z,98754.41
2023-11-30T10:52:19.017Z,98754.56
2023-11-30T10:54:52.145Z,98741.56
2023-11-30T10:57:20.324Z,98749.19
2023-11-30T10:59:49.317Z,98756.25
2023-11-30T11:02:16.911Z,98752.16
2023-11-30T11:04:44.214Z,98748.94
2023-11-30T11:07:14.711Z,98750.72
2023-11-30T11:09:51.972Z,98739.66
2023-11-30T11:12:26.739Z,98733.75
2023-11-30T11:15:16.145Z,98742.41
2023-11-30T11:17:55.539Z,98744.16
2023-11-30T11:20:27.609Z,98732.31
2023-11-30T11:23:07.328Z,98728.09
2023-11-30T11:25:48.195Z,98729.94
2023-11-30T11:28:18.372Z,98732.59
2023-11-30T11:30:47.389Z,98719.84
2023-11-30T11:33:16.857Z,98712.13
2023-11-30T11:35:44.148Z,98716.38
2023-11-30T11:38:11.401Z,98719.91
2023-11-30T11:40:40.179Z,98720.00
2023-11-30T11:43:07.341Z,98711.53
2023-11-30T11:45:34.561Z,98716.66
2023-11-30T11:48:02.905Z,98718.31
2023-11-30T11:50:30.389Z,98718.38
2023-11-30T11:53:01.376Z,98714.91
2023-11-30T11:55:28.613Z,98717.44
2023-11-30T11:57:55.689Z,98716.56
2023-11-30T12:00:24.136Z,98725.09
2023-11-30T12:02:51.938Z,98726.84
2023-11-30T12:05:23.441Z,98728.56
2023-11-30T12:07:55.650Z,98725.94
2023-11-30T12:10:34.066Z,98728.41
2023-11-30T12:13:02.459Z,98741.16
2023-11-30T12:15:30.696Z,98730.03
2023-11-30T12:17:58.206Z,98732.59
2023-11-30T12:20:25.748Z,98736.00
2023-11-30T12:22:52.822Z,98732.59
2023-11-30T12:25:19.937Z,98726.69
2023-11-30T12:27:47.331Z,98730.97
2023-11-30T12:30:14.528Z,98728.41
2023-11-30T12:32:41.548Z,98724.97
2023-11-30T12:35:09.783Z,98724.13
2023-11-30T12:37:39.203Z,98716.44
2023-11-30T12:40:10.182Z,98711.31
2023-11-30T12:42:37.885Z,98711.25
2023-11-30T12:45:06.048Z,98706.94
2023-11-30T12:47:33.191Z,98710.34
2023-11-30T12:50:00.468Z,98710.25
2023-11-30T12:52:31.140Z,98706.72
2023-11-30T12:54:58.418Z,98707.50
2023-11-30T12:57:25.670Z,98713.50
2023-11-30T12:59:52.691Z,98716.97
2023-11-30T13:02:19.896Z,98718.72
2023-11-30T13:04:47.911Z,98714.50
2023-11-30T13:07:15.097Z,98711.94
2023-11-30T13:09:42.217Z,98712.81
2023-11-30T13:12:09.206Z,98713.69
2023-11-30T13:14:36.361Z,98709.38
2023-11-30T13:17:06.156Z,98715.38
2023-11-30T13:19:33.869Z,98712.81
2023-11-30T13:22:01.153Z,98711.09
2023-11-30T13:24:28.209Z,98715.25
2023-11-30T13:26:55.179Z,98719.50
2023-11-30T13:29:22.148Z,98717.75
2023-11-30T13:31:49.356Z,98716.03
2023-11-30T13:34:16.313Z,98715.97
2023-11-30T13:36:43.443Z,98724.44
2023-11-30T13:39:11.422Z,98715.78
2023-11-30T13:41:38.407Z,98712.28
2023-11-30T13:44:06.310Z,98713.91
2023-11-30T13:46:33.598Z,98706.97
2023-11-30T13:49:00.649Z,98714.50
2023-11-30T13:51:27.912Z,98717.81
2023-11-30T13:53:54.828Z,98714.34
2023-11-30T13:56:22.883Z,98706.59
2023-11-30T13:58:50.861Z,98702.16
2023-11-30T14:01:18.375Z,98709.75
2023-11-30T14:03:45.668Z,98715.72
2023-11-30T14:06:13.532Z,98718.34
2023-11-30T14:08:41.401Z,98720.94
2023-11-30T14:11:13.188Z,98717.53
2023-11-30T14:13:40.564Z,98721.84
2023-11-30T14:16:08.400Z,98721.84
2023-11-30T14:18:35.549Z,98734.69
2023-11-30T14:21:03.139Z,98732.16
2023-11-30T14:23:30.193Z,98723.69
2023-11-30T14:25:57.809Z,98733.94
2023-11-30T14:28:26.328Z,98733.94
2023-11-30T14:30:53.922Z,98739.09
2023-11-30T14:33:21.156Z,98740.00
2023-11-30T14:35:48.314Z,98740.91
2023-11-30T14:38:15.345Z,98742.69
2023-11-30T14:40:42.376Z,98743.53
2023-11-30T14:43:09.598Z,98739.28
2023-11-30T14:45:36.745Z,98743.56
2023-11-30T14:48:07.453Z,98746.13
2023-11-30T14:50:34.939Z,98746.16
2023-11-30T14:53:01.980Z,98736.81
2023-11-30T14:55:29.016Z,98741.09
2023-11-30T14:57:56.025Z,98736.03
2023-11-30T15:00:24.828Z,98742.00
2023-11-30T15:02:52.791Z,98726.59
2023-11-30T15:05:20.030Z,98728.28
2023-11-30T15:07:46.944Z,98734.22
2023-11-30T15:10:14.259Z,98729.94
2023-11-30T15:12:41.631Z,98736.78
2023-11-30T15:15:15.141Z,98741.06
2023-11-30T15:17:48.178Z,98736.00
2023-11-30T15:20:15.833Z,98740.34
2023-11-30T15:22:43.256Z,98732.69
2023-11-30T15:25:17.922Z,98733.53
2023-11-30T15:27:45.951Z,98742.03
2023-11-30T15:30:13.777Z,98733.53
2023-11-30T15:32:41.137Z,98740.34
2023-11-30T15:35:08.364Z,98743.78
2023-11-30T15:37:36.884Z,98734.38
2023-11-30T15:40:10.384Z,98739.53
2023-11-30T15:42:39.362Z,98726.78
2023-11-30T15:45:11.563Z,98736.97
2023-11-30T15:50:07.936Z,98731.81
2023-11-30T15:52:34.928Z,98728.38
2023-11-30T15:55:01.977Z,98728.34
2023-11-30T15:57:29.251Z,98722.38
2023-11-30T15:59:56.483Z,98730.84
2023-11-30T16:02:23.665Z,98736.81
2023-11-30T16:04:51.332Z,98738.59
2023-11-30T16:07:18.511Z,98729.22
2023-11-30T16:09:52.399Z,98727.50
2023-11-30T16:12:21.316Z,98730.91
2023-11-30T16:14:48.176Z,98731.69
2023-11-30T16:17:15.334Z,98730.84
2023-11-30T16:19:42.978Z,98741.06
2023-11-30T16:22:11.326Z,98739.34
2023-11-30T16:24:38.399Z,98734.22
2023-11-30T16:27:06.183Z,98740.19
2023-11-30T16:29:33.736Z,98746.16
2023-11-30T16:32:00.907Z,98742.78
2023-11-30T16:34:32.141Z,98736.81
2023-11-30T16:37:01.008Z,98744.53
2023-11-30T16:39:28.821Z,98741.13
2023-11-30T16:41:59.535Z,98736.03
2023-11-30T16:44:30.965Z,98741.09
2023-11-30T16:47:01.716Z,98740.22
2023-11-30T16:49:31.943Z,98739.34
2023-11-30T16:52:03.377Z,98741.00
2023-11-30T16:54:35.348Z,98735.91
2023-11-30T16:57:05.735Z,98734.19
2023-11-30T16:59:36.559Z,98730.75
2023-11-30T17:02:06.431Z,98730.69
2023-11-30T17:04:33.461Z,98735.81
2023-11-30T17:07:00.748Z,98726.44
2023-11-30T17:09:28.173Z,98726.44
2023-11-30T17:11:55.194Z,98728.22
2023-11-30T17:14:22.522Z,98736.75
2023-11-30T17:16:56.124Z,98728.22
2023-11-30T17:19:29.638Z,98728.22
2023-11-30T17:22:06.320Z,98729.03
2023-11-30T17:24:37.148Z,98720.53
2023-11-30T17:27:13.074Z,98715.34
2023-11-30T17:29:46.165Z,98713.59
2023-11-30T17:32:16.465Z,98716.13
2023-11-30T17:34:46.391Z,98715.28
2023-11-30T17:37:22.010Z,98722.09
2023-11-30T17:39:52.400Z,98722.09
2023-11-30T17:42:23.360Z,98719.56
2023-11-30T17:44:52.429Z,98727.22
2023-11-30T17:47:21.276Z,98729.81
2023-11-30T17:49:48.381Z,98724.72
2023-11-30T17:52:15.806Z,98731.53
2023-11-30T17:54:43.048Z,98727.28
2023-11-30T17:57:10.876Z,98728.13
2023-11-30T17:59:38.892Z,98732.41
2023-11-30T18:02:06.546Z,98729.00
2023-11-30T18:04:38.210Z,98729.81
2023-11-30T18:07:08.675Z,98731.53
2023-11-30T18:09:35.696Z,98728.06
2023-11-30T18:12:02.916Z,98722.09
2023-11-30T18:14:33.134Z,98730.69
2023-11-30T18:17:01.409Z,98728.13
2023-11-30T18:19:29.062Z,98727.28
2023-11-30T18:21:56.137Z,98727.34
2023-11-30T18:24:31.337Z,98729.91
2023-11-30T18:26:59.872Z,98723.94
2023-11-30T18:29:30.989Z,98728.97
2023-11-30T18:31:58.088Z,98734.09
2023-11-30T18:34:25.554Z,98732.31
2023-11-30T18:36:55.133Z,98732.31
2023-11-30T18:39:22.232Z,98733.19
2023-11-30T18:41:49.246Z,98728.06
2023-11-30T18:44:16.337Z,98725.50
2023-11-30T18:46:44.131Z,98725.44
2023-11-30T18:49:11.264Z,98717.75
2023-11-30T18:51:38.397Z,98722.84
2023-11-30T18:54:06.927Z,98717.72
2023-11-30T18:56:35.114Z,98718.47
2023-11-30T18:59:03.054Z,98721.00
2023-11-30T19:01:31.072Z,98713.34
2023-11-30T19:03:59.099Z,98709.06
2023-11-30T19:06:28.178Z,98714.19
2023-11-30T19:08:55.293Z,98712.47
2023-11-30T19:11:22.668Z,98712.41
2023-11-30T19:13:49.657Z,98711.56
2023-11-30T19:16:24.030Z,98709.78
2023-11-30T19:18:51.748Z,98707.22
2023-11-30T19:21:19.363Z,98710.56
2023-11-30T19:23:46.778Z,98706.28
2023-11-30T19:26:14.382Z,98708.91
2023-11-30T19:28:41.669Z,98699.53
2023-11-30T19:31:09.011Z,98705.50
2023-11-30T19:33:36.086Z,98703.81
2023-11-30T19:36:03.242Z,98704.66
2023-11-30T19:38:30.422Z,98696.97
2023-11-30T19:40:58.358Z,98698.63
2023-11-30T19:43:26.394Z,98705.44
2023-11-30T19:46:00.288Z,98705.41
2023-11-30T19:48:29.317Z,98696.84
2023-11-30T19:50:56.664Z,98703.63
2023-11-30T19:53:23.841Z,98703.56
2023-11-30T19:55:50.729Z,98700.94
2023-11-30T19:58:18.525Z,98705.16
2023-11-30T20:00:48.689Z,98702.56
2023-11-30T20:03:17.696Z,98706.78
2023-11-30T20:05:45.506Z,98702.53
2023-11-30T20:08:12.737Z,98701.59
2023-11-30T20:10:42.775Z,98705.88
2023-11-30T20:13:11.228Z,98710.97
2023-11-30T20:15:38.600Z,98710.13
2023-11-30T20:18:07.074Z,98704.22
2023-11-30T20:20:34.244Z,98700.84
2023-11-30T20:23:03.204Z,98701.69
2023-11-30T20:25:34.255Z,98699.09
2023-11-30T20:28:03.086Z,98694.81
2023-11-30T20:30:31.175Z,98694.81
2023-11-30T20:33:04.123Z,98699.84
2023-11-30T20:35:34.174Z,98693.84
2023-11-30T20:38:01.930Z,98693.84
2023-11-30T20:40:29.335Z,98689.59
2023-11-30T20:42:56.599Z,98691.22
2023-11-30T20:45:24.929Z,98697.25
2023-11-30T20:47:53.108Z,98688.72
2023-11-30T20:50:21.106Z,98695.50
2023-11-30T20:52:49.132Z,98693.78
2023-11-30T20:55:17.119Z,98696.34
2023-11-30T20:57:45.711Z,98694.59
2023-11-30T21:00:13.518Z,98697.06
2023-11-30T21:13:34.788Z,98700.22
2023-11-30T21:16:01.973Z,98698.50
2023-11-30T21:18:30.168Z,98705.13
2023-11-30T21:20:57.296Z,98698.19
2023-11-30T21:23:24.789Z,98705.75
2023-11-30T21:25:51.808Z,98707.38
2023-11-30T21:28:19.030Z,98717.47
2023-11-30T21:30:46.164Z,98714.00
2023-11-30T21:33:13.370Z,98708.03
2023-11-30T21:35:40.631Z,98713.06
2023-11-30T21:38:07.657Z,98708.78
2023-11-30T21:40:36.601Z,98710.41
2023-11-30T21:43:03.932Z,98706.13
2023-11-30T21:45:31.180Z,98701.63
2023-11-30T21:47:58.284Z,98703.00
2023-11-30T21:50:27.069Z,98703.56
2023-11-30T21:52:54.667Z,98712.66
2023-11-30T21:55:21.835Z,98709.88
2023-11-30T21:57:49.199Z,98719.97
2023-11-30T22:00:17.274Z,98713.06
2023-11-30T22:02:48.427Z,98719.72
2023-11-30T22:05:23.308Z,98722.09
2023-11-30T22:07:54.185Z,98714.22
2023-11-30T22:10:21.363Z,98717.53
2023-11-30T22:12:48.550Z,98719.09
2023-11-30T22:15:15.728Z,98719.91
2023-11-30T22:17:42.988Z,98712.91
2023-11-30T22:20:10.699Z,98712.84
2023-11-30T22:22:38.050Z,98714.44
2023-11-30T22:25:05.606Z,98704.16
2023-11-30T22:27:32.827Z,98709.97
2023-11-30T22:30:00.081Z,98700.59
2023-11-30T22:32:27.421Z,98708.03
2023-11-30T22:34:54.722Z,98713.03
2023-11-30T22:37:21.888Z,98710.31
2023-11-30T22:39:49.107Z,98711.00
2023-11-30T22:42:16.442Z,98714.34
2023-11-30T22:44:43.765Z,98721.09
2023-11-30T22:47:10.908Z,98719.31
2023-11-30T22:49:38.156Z,98712.47
2023-11-30T22:52:05.367Z,98725.13
2023-11-30T22:54:33.173Z,98716.59
2023-11-30T22:57:00.417Z,98713.06
2023-11-30T22:59:28.866Z,98720.47
2023-11-30T23:01:56.146Z,98721.28
2023-11-30T23:04:23.578Z,98720.28
2023-11-30T23:06:51.176Z,98719.28
2023-11-30T23:09:18.418Z,98715.78
2023-11-30T23:11:45.610Z,98715.69
2023-11-30T23:14:12.673Z,98715.63
2023-11-30T23:16:39.859Z,98707.84
2023-11-30T23:19:08.871Z,98710.25
2023-11-30T23:21:36.074Z,98721.97
2023-11-30T23:24:03.253Z,98720.97
2023-11-30T23:26:30.507Z,98725.19
2023-11-30T23:28:57.577Z,98725.97
2023-11-30T23:31:24.882Z,98719.97
2023-11-30T23:33:52.105Z,98722.44
2023-11-30T23:36:19.622Z,98723.44
2023-11-30T23:38:47.000Z,98724.31
2023-11-30T23:41:14.262Z,98721.72
2023-11-30T23:43:41.230Z,98719.13
2023-11-30T23:46:09.950Z,98723.19
2023-11-30T23:48:37.195Z,98722.31
2023-11-30T23:51:04.659Z,98725.66
2023-11-30T23:53:31.821Z,98719.72
2023-11-30T23:55:58.823Z,98725.56
2023-11-30T23:58:25.943Z,98716.19
